Time;durP1;ratioP1;P1;durP2;ratioP2;P2;SDS_P1;SDS_P2;PMS_P1;PMS_P2;Temp;Humidity;BMP_temperature;BMP_pressure;BME280_temperature;BME280_humidity;BME280_pressure;Samples;Min_cycle;Max_cycle;Signal;HPM_P1;HPM_P2
2023/03/09 00:00:50;;;;;;;18.47;16.33;;;0.00;87.40;;;;;;4960657;28;20179;-88
2023/03/09 00:03:16;;;;;;;20.93;16.53;;;0.00;87.50;;;;;;4960474;28;20179;-88
2023/03/09 00:05:56;;;;;;;18.73;16.47;;;0.00;87.60;;;;;;4960201;28;20206;-88
2023/03/09 00:08:21;;;;;;;18.80;16.80;;;0.00;87.60;;;;;;4959978;28;20239;-88
2023/03/09 00:10:51;;;;;;;20.83;17.00;;;0.00;87.70;;;;;;4961133;28;20262;-88
2023/03/09 00:13:17;;;;;;;19.87;15.30;;;0.00;87.70;;;;;;4960772;28;20183;-89
2023/03/09 00:15:44;;;;;;;18.13;16.33;;;0.00;87.70;;;;;;4959806;28;20240;-89
2023/03/09 00:18:10;;;;;;;20.23;16.43;;;0.00;87.70;;;;;;4959919;28;20581;-89
2023/03/09 00:20:37;;;;;;;19.73;17.47;;;0.00;87.80;;;;;;4977289;28;20236;-89
2023/03/09 00:23:08;;;;;;;20.47;16.47;;;0.00;87.90;;;;;;4977634;28;20666;-89
2023/03/09 00:25:34;;;;;;;19.87;15.70;;;0.00;87.90;;;;;;4960040;28;20180;-88
2023/03/09 00:28:00;;;;;;;17.83;15.23;;;0.00;87.90;;;;;;4977010;28;20209;-89
2023/03/09 00:30:26;;;;;;;18.27;15.40;;;0.00;87.90;;;;;;4977007;28;20738;-88
2023/03/09 00:32:52;;;;;;;18.67;15.63;;;0.00;87.80;;;;;;4976995;28;20218;-89
2023/03/09 00:35:18;;;;;;;16.40;14.80;;;0.00;87.80;;;;;;4976843;28;20219;-89
2023/03/09 00:37:43;;;;;;;16.67;14.90;;;0.00;87.90;;;;;;4976871;28;20196;-89
2023/03/09 00:40:10;;;;;;;17.50;15.67;;;0.00;87.90;;;;;;4975470;28;20187;-89
2023/03/09 00:42:37;;;;;;;15.47;13.87;;;0.00;87.80;;;;;;4959473;28;20185;-88
2023/03/09 00:45:03;;;;;;;18.83;16.30;;;0.00;87.80;;;;;;4976674;28;20183;-88
2023/03/09 00:47:29;;;;;;;22.80;16.30;;;0.00;87.80;;;;;;4976529;28;20204;-88
2023/03/09 00:49:54;;;;;;;17.43;14.10;;;0.00;87.90;;;;;;4976593;28;20175;-89
2023/03/09 00:52:20;;;;;;;17.03;14.50;;;-0.10;87.90;;;;;;4959278;28;20227;-88
2023/03/09 00:54:45;;;;;;;17.97;15.10;;;-0.10;88.00;;;;;;4976513;28;20254;-89
2023/03/09 00:57:11;;;;;;;15.77;14.13;;;0.00;88.00;;;;;;4959200;28;20225;-89
2023/03/09 00:59:36;;;;;;;15.83;13.70;;;-0.10;88.00;;;;;;4976728;28;20175;-89
2023/03/09 01:02:02;;;;;;;17.47;15.07;;;-0.10;88.00;;;;;;4976348;28;20192;-88
2023/03/09 01:04:28;;;;;;;18.00;15.30;;;-0.10;88.00;;;;;;4976343;28;20199;-89
2023/03/09 01:06:54;;;;;;;17.00;14.03;;;-0.10;88.00;;;;;;4976222;28;20240;-89
2023/03/09 01:09:20;;;;;;;16.27;14.67;;;-0.10;88.00;;;;;;4976153;28;20176;-89
2023/03/09 01:11:45;;;;;;;15.70;14.10;;;-0.10;88.00;;;;;;4976218;28;20327;-89
2023/03/09 01:14:11;;;;;;;14.83;13.33;;;0.00;87.90;;;;;;4976118;28;20184;-89
2023/03/09 01:16:36;;;;;;;16.47;14.53;;;-0.10;87.90;;;;;;4958632;28;20705;-89
2023/03/09 01:19:02;;;;;;;17.03;14.77;;;-0.10;87.90;;;;;;4976024;28;20710;-89
2023/03/09 01:21:28;;;;;;;17.37;15.63;;;-0.10;87.90;;;;;;4976014;28;20183;-89
2023/03/09 01:23:56;;;;;;;16.30;14.00;;;-0.20;88.00;;;;;;4975940;28;20259;-89
2023/03/09 01:26:22;;;;;;;19.50;16.73;;;-0.20;88.10;;;;;;4958614;28;20190;-91
2023/03/09 01:28:48;;;;;;;17.93;16.13;;;-0.30;88.20;;;;;;4958479;28;20199;-89
2023/03/09 01:31:14;;;;;;;19.00;17.00;;;-0.40;88.40;;;;;;4958570;28;20189;-91
2023/03/09 01:33:41;;;;;;;18.97;16.97;;;-0.40;88.60;;;;;;4975786;28;20178;-89
2023/03/09 01:36:11;;;;;;;18.90;16.77;;;-0.50;88.70;;;;;;4958392;28;20206;-88
2023/03/09 01:38:36;;;;;;;21.50;17.10;;;-0.50;88.90;;;;;;4975599;28;20269;-88
2023/03/09 01:41:03;;;;;;;18.57;16.77;;;-0.60;89.10;;;;;;4975664;28;20218;-88
2023/03/09 01:43:40;;;;;;;20.13;17.43;;;-0.60;89.20;;;;;;4958229;28;20191;-88
2023/03/09 01:46:27;;;;;;;19.43;17.17;;;-0.60;89.40;;;;;;4959144;28;20176;-88
2023/03/09 01:48:55;;;;;;;16.27;14.53;;;-0.70;89.50;;;;;;4958245;28;20287;-88
2023/03/09 01:51:26;;;;;;;23.87;15.40;;;-0.70;89.70;;;;;;4958035;28;20194;-88
2023/03/09 01:53:52;;;;;;;20.07;15.80;;;-0.70;89.80;;;;;;4958927;28;20202;-88
2023/03/09 01:56:20;;;;;;;17.80;15.90;;;-0.70;89.90;;;;;;4957969;28;20214;-88
2023/03/09 01:58:48;;;;;;;19.37;17.30;;;-0.70;90.00;;;;;;4957976;28;20206;-88
2023/03/09 02:01:13;;;;;;;18.67;16.67;;;-0.70;90.00;;;;;;4958212;28;20193;-88
2023/03/09 02:03:44;;;;;;;21.43;17.60;;;-0.70;90.10;;;;;;4975189;28;20254;-88
2023/03/09 02:06:16;;;;;;;20.90;17.53;;;-0.70;90.10;;;;;;4958048;28;20185;-88
2023/03/09 02:08:50;;;;;;;20.50;18.30;;;-0.70;90.10;;;;;;4975436;28;20253;-88
2023/03/09 02:11:16;;;;;;;22.83;16.83;;;-0.70;90.20;;;;;;4957906;28;20277;-88
2023/03/09 02:13:46;;;;;;;20.77;16.43;;;-0.70;90.20;;;;;;4974976;28;20680;-88
2023/03/09 02:16:11;;;;;;;19.23;17.27;;;-0.80;90.30;;;;;;4957535;28;20213;-88
2023/03/09 02:18:38;;;;;;;18.93;16.93;;;-0.70;90.30;;;;;;4975016;28;20198;-88
2023/03/09 02:21:26;;;;;;;19.83;16.23;;;-0.80;90.40;;;;;;4958015;28;20233;-88
2023/03/09 02:24:19;;;;;;;18.83;16.83;;;-0.80;90.40;;;;;;4957988;28;20702;-88
2023/03/09 02:26:54;;;;;;;20.57;18.13;;;-0.80;90.40;;;;;;4957533;28;20201;-88
2023/03/09 02:29:20;;;;;;;17.60;15.67;;;-0.80;90.40;;;;;;4957577;28;20174;-88
2023/03/09 02:31:45;;;;;;;18.77;16.87;;;-0.80;90.50;;;;;;4957458;28;20240;-88
2023/03/09 02:34:12;;;;;;;18.93;16.03;;;-0.80;90.50;;;;;;4974778;28;20187;-88
2023/03/09 02:36:37;;;;;;;19.80;16.23;;;-0.80;90.50;;;;;;4957293;28;20206;-88
2023/03/09 02:39:30;;;;;;;20.47;17.50;;;-0.80;90.40;;;;;;4957433;28;20215;-88
2023/03/09 02:41:58;;;;;;;22.53;16.77;;;-0.70;90.40;;;;;;4957374;28;20186;-87
2023/03/09 02:44:25;;;;;;;18.17;16.07;;;-0.70;90.40;;;;;;4957671;28;20179;-88
2023/03/09 02:46:50;;;;;;;18.47;16.67;;;-0.70;90.30;;;;;;4958005;28;20653;-88
2023/03/09 02:49:17;;;;;;;18.93;17.03;;;-0.70;90.30;;;;;;4957287;28;20188;-88
2023/03/09 02:51:43;;;;;;;20.97;16.83;;;-0.70;90.30;;;;;;4957425;28;20183;-88
2023/03/09 02:54:08;;;;;;;20.43;17.43;;;-0.70;90.30;;;;;;4957188;28;20242;-88
2023/03/09 02:56:34;;;;;;;18.70;17.00;;;-0.70;90.40;;;;;;4974391;28;20203;-88
2023/03/09 02:59:02;;;;;;;20.07;17.97;;;-0.70;90.30;;;;;;4957239;28;20182;-88
2023/03/09 03:01:28;;;;;;;26.93;17.90;;;-0.70;90.40;;;;;;4957089;28;20680;-88
2023/03/09 03:03:53;;;;;;;20.33;16.50;;;-0.70;90.40;;;;;;4973727;28;20171;-88
2023/03/09 03:06:19;;;;;;;19.83;17.97;;;-0.70;90.40;;;;;;4957149;28;20592;-88
2023/03/09 03:08:44;;;;;;;18.40;16.57;;;-0.70;90.40;;;;;;4974631;28;20210;-88
2023/03/09 03:11:10;;;;;;;17.87;16.17;;;-0.70;90.30;;;;;;4957396;28;20185;-88
2023/03/09 03:13:36;;;;;;;20.00;17.77;;;-0.70;90.30;;;;;;4957011;28;20183;-88
2023/03/09 03:16:02;;;;;;;19.27;17.27;;;-0.70;90.30;;;;;;4956954;28;20206;-88
2023/03/09 03:18:28;;;;;;;17.93;16.03;;;-0.70;90.30;;;;;;4957299;28;20196;-88
2023/03/09 03:20:55;;;;;;;21.97;17.30;;;-0.70;90.30;;;;;;4956924;28;20195;-88
2023/03/09 03:23:20;;;;;;;19.23;17.30;;;-0.70;90.30;;;;;;4957170;28;20175;-88
2023/03/09 03:25:46;;;;;;;19.33;17.30;;;-0.70;90.30;;;;;;4957241;28;20644;-88
2023/03/09 03:28:11;;;;;;;20.90;17.57;;;-0.70;90.30;;;;;;4957227;28;20195;-88
2023/03/09 03:30:37;;;;;;;19.77;17.67;;;-0.70;90.30;;;;;;4974195;28;20238;-88
2023/03/09 03:33:03;;;;;;;19.20;16.80;;;-0.70;90.40;;;;;;4956876;28;20269;-88
2023/03/09 03:35:28;;;;;;;20.00;18.23;;;-0.70;90.30;;;;;;4974097;28;20286;-88
2023/03/09 03:37:54;;;;;;;19.13;16.63;;;-0.70;90.40;;;;;;4957284;28;20205;-88
2023/03/09 03:40:20;;;;;;;19.40;17.40;;;-0.70;90.40;;;;;;4974233;28;20179;-88
2023/03/09 03:42:46;;;;;;;18.63;16.63;;;-0.60;90.40;;;;;;4974058;28;20664;-88
2023/03/09 03:45:12;;;;;;;19.90;17.83;;;-0.60;90.40;;;;;;4974338;28;20634;-88
2023/03/09 03:47:37;;;;;;;20.17;17.77;;;-0.60;90.40;;;;;;4957088;28;20285;-88
2023/03/09 03:50:04;;;;;;;20.87;17.90;;;-0.60;90.30;;;;;;4973993;28;20186;-89
2023/03/09 03:52:29;;;;;;;18.90;17.10;;;-0.60;90.40;;;;;;4973905;28;20193;-88
2023/03/09 03:54:55;;;;;;;19.47;17.60;;;-0.60;90.30;;;;;;4957390;28;20558;-89
2023/03/09 03:57:22;;;;;;;23.20;17.37;;;-0.60;90.30;;;;;;4956487;28;20665;-89
2023/03/09 03:59:49;;;;;;;21.93;17.93;;;-0.60;90.30;;;;;;4974191;28;20168;-88
2023/03/09 04:02:14;;;;;;;20.40;18.50;;;-0.60;90.30;;;;;;4956851;28;20235;-88
2023/03/09 04:04:40;;;;;;;18.03;16.37;;;-0.60;90.30;;;;;;4956618;28;20179;-88
2023/03/09 04:07:05;;;;;;;20.50;18.27;;;-0.60;90.30;;;;;;4973800;28;20669;-89
2023/03/09 04:09:32;;;;;;;20.87;16.93;;;-0.60;90.30;;;;;;4957170;28;20193;-88
2023/03/09 04:11:57;;;;;;;19.40;16.70;;;-0.60;90.30;;;;;;4956826;28;20266;-88
2023/03/09 04:14:23;;;;;;;20.70;18.20;;;-0.60;90.20;;;;;;4958252;28;20270;-88
2023/03/09 04:16:48;;;;;;;20.63;18.40;;;-0.60;90.20;;;;;;4977030;28;20198;-88
2023/03/09 04:19:14;;;;;;;21.30;18.33;;;-0.60;90.20;;;;;;4959850;28;20179;-88
2023/03/09 04:21:39;;;;;;;20.13;16.53;;;-0.60;90.20;;;;;;4977150;28;20258;-88
2023/03/09 04:24:05;;;;;;;25.00;18.47;;;-0.60;90.20;;;;;;4977099;28;20208;-89
2023/03/09 04:26:31;;;;;;;23.67;18.17;;;-0.60;90.30;;;;;;4976950;28;20187;-88
2023/03/09 04:28:57;;;;;;;19.77;17.67;;;-0.60;90.30;;;;;;4976979;28;20179;-89
2023/03/09 04:31:22;;;;;;;20.10;17.93;;;-0.60;90.30;;;;;;4977293;28;20762;-88
2023/03/09 04:33:48;;;;;;;23.73;18.47;;;-0.60;90.30;;;;;;4977015;28;20657;-88
2023/03/09 04:36:13;;;;;;;19.07;16.83;;;-0.60;90.30;;;;;;4977311;28;20257;-88
2023/03/09 04:38:39;;;;;;;20.20;18.03;;;-0.60;90.30;;;;;;4976764;28;20195;-89
2023/03/09 04:41:05;;;;;;;21.53;18.40;;;-0.60;90.30;;;;;;4959465;28;20184;-88
2023/03/09 04:43:31;;;;;;;21.70;18.90;;;-0.60;90.30;;;;;;4959461;28;20183;-88
2023/03/09 04:45:57;;;;;;;20.43;17.33;;;-0.60;90.30;;;;;;4976718;28;20646;-89
2023/03/09 04:48:23;;;;;;;22.40;18.47;;;-0.60;90.30;;;;;;4976601;28;20196;-88
2023/03/09 04:50:48;;;;;;;23.17;19.63;;;-0.60;90.30;;;;;;4976636;28;20229;-89
2023/03/09 04:53:14;;;;;;;21.30;19.07;;;-0.60;90.30;;;;;;4976678;28;20230;-88
2023/03/09 04:55:40;;;;;;;24.13;19.53;;;-0.60;90.30;;;;;;4959194;28;20254;-88
2023/03/09 04:58:05;;;;;;;21.33;19.13;;;-0.60;90.30;;;;;;4959263;28;20637;-89
2023/03/09 05:00:32;;;;;;;22.43;18.73;;;-0.60;90.30;;;;;;4959496;28;20552;-89
2023/03/09 05:02:58;;;;;;;20.73;18.63;;;-0.60;90.30;;;;;;4960220;28;20204;-89
2023/03/09 05:05:24;;;;;;;23.17;20.23;;;-0.60;90.30;;;;;;4976394;28;20231;-89
2023/03/09 05:07:49;;;;;;;21.13;18.97;;;-0.60;90.30;;;;;;4976258;28;20196;-88
2023/03/09 05:10:15;;;;;;;21.00;18.53;;;-0.60;90.30;;;;;;4959283;28;20387;-89
2023/03/09 05:12:41;;;;;;;24.80;20.87;;;-0.70;90.30;;;;;;4976299;28;20172;-88
2023/03/09 05:15:08;;;;;;;25.83;20.03;;;-0.70;90.30;;;;;;4959066;28;20202;-88
2023/03/09 05:17:34;;;;;;;20.80;18.90;;;-0.70;90.30;;;;;;4975952;28;20281;-88
2023/03/09 05:20:00;;;;;;;23.90;21.17;;;-0.70;90.40;;;;;;4976114;28;20313;-89
2023/03/09 05:22:25;;;;;;;23.60;19.63;;;-0.70;90.40;;;;;;4959547;28;20183;-89
2023/03/09 05:24:51;;;;;;;21.83;19.50;;;-0.80;90.40;;;;;;4975620;28;20186;-89
2023/03/09 05:27:16;;;;;;;23.43;19.07;;;-0.80;90.40;;;;;;4958559;28;20206;-89
2023/03/09 05:29:42;;;;;;;23.60;21.10;;;-0.90;90.40;;;;;;4959699;28;20555;-89
2023/03/09 05:32:08;;;;;;;23.60;21.13;;;-0.90;90.40;;;;;;4958588;28;20186;-88
2023/03/09 05:34:34;;;;;;;22.00;19.70;;;-0.90;90.60;;;;;;4958413;28;20649;-88
2023/03/09 05:37:00;;;;;;;25.07;19.60;;;-0.90;90.60;;;;;;4958341;28;20199;-88
2023/03/09 05:39:26;;;;;;;25.83;20.87;;;-0.90;90.60;;;;;;4958648;28;20712;-89
2023/03/09 05:41:51;;;;;;;23.27;21.03;;;-0.90;90.60;;;;;;4975734;28;20281;-89
2023/03/09 05:44:17;;;;;;;23.70;21.40;;;-0.90;90.60;;;;;;4958339;28;20183;-89
2023/03/09 05:46:42;;;;;;;22.37;20.00;;;-0.90;90.70;;;;;;4958998;28;20660;-89
2023/03/09 05:49:09;;;;;;;22.30;19.77;;;-1.00;90.60;;;;;;4958666;28;20184;-88
2023/03/09 05:51:35;;;;;;;21.40;19.40;;;-1.00;90.70;;;;;;4958739;28;20183;-88
2023/03/09 05:54:00;;;;;;;27.67;21.63;;;-0.90;90.70;;;;;;4958084;28;20210;-88
2023/03/09 05:56:26;;;;;;;27.27;20.80;;;-0.90;90.70;;;;;;4975546;28;20234;-88
2023/03/09 05:58:51;;;;;;;23.63;20.77;;;-0.90;90.70;;;;;;4975308;28;20198;-89
2023/03/09 06:01:20;;;;;;;22.30;19.50;;;-0.90;90.70;;;;;;4958047;28;20180;-89
2023/03/09 06:03:46;;;;;;;22.03;19.87;;;-0.90;90.60;;;;;;4975331;28;20178;-88
2023/03/09 06:06:12;;;;;;;22.20;19.80;;;-0.90;90.60;;;;;;4957967;28;20181;-88
2023/03/09 06:08:38;;;;;;;21.60;19.37;;;-1.00;90.60;;;;;;4957926;28;20203;-88
2023/03/09 06:11:03;;;;;;;23.63;19.27;;;-1.00;90.60;;;;;;4957842;28;20178;-88
2023/03/09 06:13:29;;;;;;;23.87;20.60;;;-1.00;90.50;;;;;;4958926;28;20273;-88
2023/03/09 06:15:54;;;;;;;22.70;20.30;;;-1.00;90.50;;;;;;4957771;28;20194;-88
2023/03/09 06:18:21;;;;;;;26.83;21.93;;;-1.00;90.50;;;;;;4975006;28;20287;-89
2023/03/09 06:20:47;;;;;;;23.13;20.93;;;-1.00;90.50;;;;;;4957819;28;20184;-88
2023/03/09 06:23:13;;;;;;;21.90;19.53;;;-1.00;90.50;;;;;;4957893;28;20179;-89
2023/03/09 06:25:38;;;;;;;22.10;19.90;;;-1.00;90.50;;;;;;4957804;28;20716;-88
2023/03/09 06:28:04;;;;;;;23.80;21.13;;;-1.00;90.50;;;;;;4957589;28;20246;-88
2023/03/09 06:30:30;;;;;;;26.93;21.47;;;-0.90;90.60;;;;;;4957499;28;20182;-88
2023/03/09 06:32:56;;;;;;;24.23;21.83;;;-0.90;90.60;;;;;;4957530;28;20190;-88
2023/03/09 06:35:22;;;;;;;27.57;22.73;;;-0.90;90.70;;;;;;4957337;28;20202;-89
2023/03/09 06:37:48;;;;;;;24.70;22.17;;;-0.80;90.70;;;;;;4957343;28;20195;-88
2023/03/09 06:40:14;;;;;;;27.10;22.10;;;-0.80;90.70;;;;;;4974756;28;20596;-88
2023/03/09 06:42:40;;;;;;;24.43;21.83;;;-0.80;90.70;;;;;;4957316;28;20212;-88
2023/03/09 06:45:06;;;;;;;25.27;22.77;;;-0.70;90.70;;;;;;4957299;28;20271;-89
2023/03/09 06:47:32;;;;;;;24.10;21.77;;;-0.70;90.80;;;;;;4957276;28;20208;-89
2023/03/09 06:49:57;;;;;;;29.60;22.70;;;-0.70;90.80;;;;;;4957516;28;20178;-89
2023/03/09 06:52:24;;;;;;;25.67;23.07;;;-0.70;90.90;;;;;;4957797;28;20225;-88
2023/03/09 06:54:50;;;;;;;24.90;22.57;;;-0.70;90.90;;;;;;4957137;28;20181;-89
2023/03/09 06:57:15;;;;;;;27.03;24.03;;;-0.70;90.90;;;;;;4957086;28;20226;-88
2023/03/09 06:59:41;;;;;;;27.37;23.93;;;-0.60;91.00;;;;;;4957168;28;20600;-89
2023/03/09 07:02:13;;;;;;;26.00;23.07;;;-0.60;91.10;;;;;;4957149;28;20629;-88
2023/03/09 07:04:38;;;;;;;26.77;24.10;;;-0.60;91.10;;;;;;4957175;28;20175;-88
2023/03/09 07:07:04;;;;;;;25.37;23.00;;;-0.50;91.20;;;;;;4957118;28;20285;-89
2023/03/09 07:09:31;;;;;;;24.83;22.33;;;-0.50;91.10;;;;;;4957078;28;20189;-89
2023/03/09 07:11:57;;;;;;;27.20;24.30;;;-0.40;91.20;;;;;;4957066;28;20174;-88
2023/03/09 07:14:23;;;;;;;26.17;23.47;;;-0.40;91.10;;;;;;4956970;28;20203;-89
2023/03/09 07:16:53;;;;;;;25.43;22.80;;;-0.30;91.10;;;;;;4956905;28;20241;-89
2023/03/09 07:19:20;;;;;;;27.63;22.93;;;-0.30;91.00;;;;;;4957826;28;20262;-89
2023/03/09 07:21:45;;;;;;;25.27;21.90;;;-0.30;90.90;;;;;;4974226;28;20226;-89
2023/03/09 07:24:11;;;;;;;32.27;22.23;;;-0.20;90.90;;;;;;4956882;28;20650;-89
2023/03/09 07:26:36;;;;;;;23.47;20.97;;;-0.20;90.80;;;;;;4974146;28;20218;-89
2023/03/09 07:29:02;;;;;;;25.07;22.37;;;-0.10;90.70;;;;;;4974141;28;20189;-89
2023/03/09 07:31:29;;;;;;;24.20;21.23;;;-0.10;90.60;;;;;;4974178;28;20182;-89
2023/03/09 07:33:58;;;;;;;24.83;22.47;;;0.00;90.60;;;;;;4974153;28;20227;-89
2023/03/09 07:36:25;;;;;;;25.10;22.20;;;0.00;90.50;;;;;;4973965;28;20206;-89
2023/03/09 07:38:51;;;;;;;24.30;21.77;;;0.00;90.50;;;;;;4956730;28;20201;-89
2023/03/09 07:41:18;;;;;;;27.07;22.20;;;0.00;90.40;;;;;;4974041;28;20192;-89
2023/03/09 07:43:43;;;;;;;25.13;22.53;;;0.00;90.20;;;;;;4956709;28;20189;-89
2023/03/09 07:46:14;;;;;;;25.23;20.90;;;0.00;90.20;;;;;;4973979;28;20176;-89
2023/03/09 07:48:42;;;;;;;26.73;21.70;;;0.00;90.10;;;;;;4974688;28;20195;-89
2023/03/09 07:51:08;;;;;;;26.03;21.87;;;0.10;90.10;;;;;;4960486;28;20180;-89
2023/03/09 07:53:35;;;;;;;24.70;18.93;;;0.20;90.00;;;;;;4977586;28;20188;-89
2023/03/09 07:56:03;;;;;;;30.20;22.80;;;0.20;89.90;;;;;;4977498;28;20571;-88
2023/03/09 07:58:29;;;;;;;24.97;20.97;;;0.30;89.80;;;;;;4977522;28;20231;-89
2023/03/09 08:00:56;;;;;;;28.10;22.53;;;0.30;89.70;;;;;;4977791;28;20177;-89
2023/03/09 08:03:22;;;;;;;27.50;21.53;;;0.30;89.60;;;;;;4977825;28;20166;-89
2023/03/09 08:05:49;;;;;;;24.30;21.33;;;0.40;89.50;;;;;;4960157;28;20181;-89
2023/03/09 08:08:15;;;;;;;23.87;21.20;;;0.50;89.30;;;;;;4977391;28;20672;-89
2023/03/09 08:10:50;;;;;;;28.43;21.63;;;0.60;89.20;;;;;;4977320;28;20180;-89
2023/03/09 08:13:16;;;;;;;26.37;22.93;;;0.60;89.00;;;;;;4977358;28;20156;-89
2023/03/09 08:15:42;;;;;;;27.50;22.47;;;0.70;88.70;;;;;;4977241;28;20702;-88
2023/03/09 08:18:07;;;;;;;25.43;20.83;;;0.70;88.60;;;;;;4977164;28;20194;-87
2023/03/09 08:20:33;;;;;;;26.67;22.83;;;0.80;88.50;;;;;;4960117;28;20699;-90
2023/03/09 08:22:59;;;;;;;25.27;21.40;;;0.80;88.40;;;;;;4977271;28;20174;-90
2023/03/09 08:25:24;;;;;;;25.13;22.30;;;0.90;88.10;;;;;;4977160;28;20176;-89
2023/03/09 08:27:51;;;;;;;24.77;21.73;;;1.00;88.10;;;;;;4976925;28;20255;-89
2023/03/09 08:30:19;;;;;;;27.70;19.23;;;1.00;87.90;;;;;;4977533;28;20178;-88
2023/03/09 08:32:47;;;;;;;26.80;21.00;;;1.00;87.50;;;;;;4977632;28;20173;-88
2023/03/09 08:35:14;;;;;;;24.30;21.73;;;1.00;87.10;;;;;;4976855;28;20710;-88
2023/03/09 08:37:40;;;;;;;25.10;19.77;;;1.10;87.00;;;;;;4959956;28;20201;-88
2023/03/09 08:40:06;;;;;;;26.43;20.30;;;1.20;87.00;;;;;;4959984;28;20166;-88
2023/03/09 08:42:33;;;;;;;24.63;21.03;;;1.30;86.80;;;;;;4977321;28;20671;-89
2023/03/09 08:44:59;;;;;;;25.47;20.33;;;1.40;86.30;;;;;;4977000;28;20547;-88
2023/03/09 08:47:25;;;;;;;21.90;19.23;;;1.50;86.20;;;;;;4976669;28;20195;-88
2023/03/09 08:49:51;;;;;;;23.97;20.70;;;1.60;85.70;;;;;;4959493;28;20190;-88
2023/03/09 08:52:16;;;;;;;28.07;25.37;;;1.70;85.70;;;;;;4977158;28;20200;-88
2023/03/09 08:54:42;;;;;;;31.17;23.83;;;1.70;85.10;;;;;;4976690;28;20270;-88
2023/03/09 08:57:08;;;;;;;36.10;26.60;;;1.80;85.30;;;;;;4976881;28;20190;-88
2023/03/09 08:59:34;;;;;;;30.20;23.57;;;1.80;84.70;;;;;;4959109;28;20181;-88
2023/03/09 09:02:00;;;;;;;27.53;24.63;;;1.80;84.20;;;;;;4958847;28;20175;-88
2023/03/09 09:04:26;;;;;;;26.73;24.23;;;1.70;84.20;;;;;;4976426;28;20176;-88
2023/03/09 09:06:51;;;;;;;27.13;24.53;;;1.80;84.20;;;;;;4959776;28;20202;-88
2023/03/09 09:09:17;;;;;;;30.60;26.30;;;1.70;83.90;;;;;;4976555;28;20175;-88
2023/03/09 09:11:42;;;;;;;26.50;23.77;;;1.80;84.00;;;;;;4959863;28;20268;-88
2023/03/09 09:14:08;;;;;;;25.43;23.23;;;1.90;84.10;;;;;;4976259;28;20185;-88
2023/03/09 09:16:34;;;;;;;25.97;23.27;;;2.00;84.00;;;;;;4958974;28;20237;-87
2023/03/09 09:18:59;;;;;;;27.33;24.43;;;2.10;83.70;;;;;;4959094;28;20175;-87
2023/03/09 09:21:27;;;;;;;27.73;25.03;;;2.30;83.30;;;;;;4959672;28;20175;-87
2023/03/09 09:23:53;;;;;;;26.03;23.57;;;2.30;82.80;;;;;;4958694;28;20589;-88
2023/03/09 09:26:20;;;;;;;24.83;22.23;;;2.40;82.50;;;;;;4958740;28;20662;-88
2023/03/09 09:28:46;;;;;;;27.03;24.40;;;2.40;81.60;;;;;;4958598;28;20219;-88
2023/03/09 09:31:17;;;;;;;25.30;22.80;;;2.50;81.50;;;;;;4958674;28;20175;-88
2023/03/09 09:33:43;;;;;;;23.67;21.37;;;2.60;81.40;;;;;;4959433;28;20167;-88
2023/03/09 09:36:12;;;;;;;20.13;18.23;;;2.70;81.60;;;;;;4976321;28;20203;-88
2023/03/09 09:38:39;;;;;;;33.57;21.20;;;2.70;80.70;;;;;;4958453;28;20584;-88
2023/03/09 09:41:12;;;;;;;23.83;21.27;;;2.70;80.10;;;;;;4958342;28;20179;-87
2023/03/09 09:43:39;;;;;;;23.23;20.97;;;2.80;79.50;;;;;;4958496;28;20174;-90
2023/03/09 09:46:09;;;;;;;22.87;20.30;;;2.80;79.70;;;;;;4958326;28;20178;-89
2023/03/09 09:48:36;;;;;;;25.57;20.70;;;2.80;78.50;;;;;;4958263;28;20200;-88
2023/03/09 09:51:55;;;;;;;23.33;21.13;;;2.90;78.80;;;;;;4975565;28;20181;-89
2023/03/09 09:54:47;;;;;;;26.10;23.87;;;3.10;79.00;;;;;;4878502;29;20204;-88
2023/03/09 09:57:22;;;;;;;25.43;23.13;;;3.10;78.20;;;;;;4862952;29;20210;-88
2023/03/09 10:00:00;;;;;;;25.70;23.27;;;3.30;77.80;;;;;;4940624;28;20373;-88
2023/03/09 10:02:40;;;;;;;30.97;24.87;;;3.30;77.40;;;;;;4975396;28;20174;-88
2023/03/09 10:05:27;;;;;;;25.07;23.10;;;3.50;77.80;;;;;;4957987;28;20170;-88
2023/03/09 10:07:54;;;;;;;25.50;23.17;;;3.50;76.80;;;;;;4975227;28;20698;-88
2023/03/09 10:10:28;;;;;;;25.10;23.00;;;3.60;77.10;;;;;;4957796;28;20600;-88
2023/03/09 10:12:57;;;;;;;20.63;17.13;;;3.70;75.80;;;;;;4974859;28;20193;-88
2023/03/09 10:15:28;;;;;;;21.17;19.37;;;3.90;76.00;;;;;;4975011;28;20200;-88
2023/03/09 10:18:01;;;;;;;20.93;18.83;;;3.90;75.80;;;;;;4957724;28;20279;-88
2023/03/09 10:20:36;;;;;;;19.57;17.67;;;3.80;74.40;;;;;;4975324;28;20164;-88
2023/03/09 10:23:24;;;;;;;18.60;16.90;;;3.70;73.70;;;;;;4957831;28;20174;-87
2023/03/09 10:25:53;;;;;;;19.60;17.80;;;3.60;73.90;;;;;;4944403;28;20192;-86
2023/03/09 10:28:21;;;;;;;19.53;17.73;;;3.40;74.60;;;;;;4957536;28;20286;-86
2023/03/09 10:31:04;;;;;;;20.03;18.33;;;3.50;75.40;;;;;;4974861;28;20187;-89
2023/03/09 10:33:45;;;;;;;20.57;18.53;;;3.60;75.60;;;;;;4975308;28;20248;-89
2023/03/09 10:36:48;;;;;;;20.87;18.97;;;3.60;75.10;;;;;;4974696;28;20277;-88
2023/03/09 10:39:16;;;;;;;22.80;19.07;;;3.60;75.00;;;;;;4918673;28;20662;-87
2023/03/09 10:41:42;;;;;;;26.33;19.63;;;3.60;74.80;;;;;;4957466;28;20175;-87
2023/03/09 10:44:13;;;;;;;22.20;18.80;;;3.60;74.80;;;;;;4957376;28;20652;-89
2023/03/09 10:46:58;;;;;;;22.07;19.43;;;3.60;74.80;;;;;;4974539;28;20251;-89
2023/03/09 10:49:24;;;;;;;26.00;19.00;;;3.60;74.70;;;;;;4974721;28;20171;-89
2023/03/09 10:52:00;;;;;;;20.33;18.53;;;3.50;74.50;;;;;;4974405;28;20173;-89
2023/03/09 10:54:40;;;;;;;30.47;19.80;;;3.60;74.60;;;;;;4957385;28;20198;-88
2023/03/09 10:57:23;;;;;;;23.97;19.63;;;3.50;74.50;;;;;;4974722;28;20699;-88
2023/03/09 10:59:58;;;;;;;22.20;19.60;;;3.50;74.40;;;;;;4974485;28;20659;-88
2023/03/09 11:02:33;;;;;;;20.90;18.90;;;3.50;75.30;;;;;;4974499;28;20184;-88
2023/03/09 11:04:59;;;;;;;20.23;18.40;;;3.60;75.50;;;;;;4974394;28;20170;-89
2023/03/09 11:07:29;;;;;;;21.23;19.20;;;3.60;74.00;;;;;;4957029;28;20278;-88
2023/03/09 11:09:55;;;;;;;22.27;19.40;;;3.60;74.20;;;;;;4957084;28;20175;-88
2023/03/09 11:12:45;;;;;;;20.47;18.17;;;3.70;75.00;;;;;;4957029;28;20181;-88
2023/03/09 11:15:13;;;;;;;21.57;19.43;;;3.70;74.00;;;;;;4974223;28;20216;-89
2023/03/09 11:17:41;;;;;;;20.70;18.80;;;3.70;73.50;;;;;;4956887;28;20251;-89
2023/03/09 11:20:33;;;;;;;32.37;19.90;;;3.80;73.50;;;;;;4974243;28;20252;-88
2023/03/09 11:23:17;;;;;;;20.83;18.83;;;3.80;73.80;;;;;;4946634;28;20182;-88
2023/03/09 11:26:08;;;;;;;21.33;19.13;;;3.90;74.10;;;;;;4961617;28;20198;-88
2023/03/09 11:28:55;;;;;;;21.07;19.07;;;3.90;73.20;;;;;;4978152;28;20752;-88
2023/03/09 11:31:42;;;;;;;22.17;19.57;;;4.00;72.70;;;;;;4960974;28;20167;-88
2023/03/09 11:34:15;;;;;;;20.37;18.27;;;4.10;72.40;;;;;;4961380;28;20167;-89
2023/03/09 11:37:07;;;;;;;21.77;19.57;;;4.40;72.20;;;;;;4961057;28;20681;-89
2023/03/09 11:39:37;;;;;;;19.43;17.63;;;4.60;71.70;;;;;;4965110;28;20568;-88
2023/03/09 11:42:09;;;;;;;21.20;19.23;;;5.00;71.50;;;;;;4978212;28;20158;-89
2023/03/09 11:44:39;;;;;;;21.77;19.80;;;5.10;69.50;;;;;;4960679;28;20170;-89
2023/03/09 11:47:25;;;;;;;18.50;17.00;;;5.40;70.70;;;;;;4961329;28;20681;-91
2023/03/09 11:49:52;;;;;;;19.37;17.77;;;5.50;68.30;;;;;;4996498;28;20182;-91
2023/03/09 11:52:45;;;;;;;20.70;18.80;;;5.60;67.40;;;;;;4994405;28;20193;-91
2023/03/09 11:55:15;;;;;;;21.27;19.47;;;5.60;67.80;;;;;;4967349;28;20194;-94
2023/03/09 11:57:44;;;;;;;21.83;19.90;;;5.60;66.20;;;;;;4976976;28;20258;-91
2023/03/09 12:00:15;;;;;;;19.70;18.10;;;5.50;65.50;;;;;;4975841;28;20162;-91
2023/03/09 12:03:10;;;;;;;24.43;22.03;;;5.80;66.80;;;;;;4961685;28;20163;-90
2023/03/09 12:05:42;;;;;;;22.77;20.67;;;6.00;64.60;;;;;;4965554;28;20217;-91
2023/03/09 12:08:30;;;;;;;20.57;18.87;;;6.10;63.80;;;;;;4989707;28;20210;-91
2023/03/09 12:11:26;;;;;;;21.60;19.40;;;5.90;63.00;;;;;;4967226;28;20171;-91
2023/03/09 12:14:11;;;;;;;19.03;17.53;;;5.90;64.00;;;;;;4972705;28;20171;-90
2023/03/09 12:16:39;;;;;;;20.03;18.13;;;5.80;63.20;;;;;;4971900;28;20251;-91
2023/03/09 12:19:19;;;;;;;21.40;19.70;;;6.00;62.40;;;;;;4976666;28;20174;-90
2023/03/09 12:21:50;;;;;;;20.70;18.80;;;6.10;62.90;;;;;;4960910;28;20166;-89
2023/03/09 12:24:21;;;;;;;20.47;18.67;;;6.50;63.30;;;;;;4987180;28;20235;-91
2023/03/09 12:27:01;;;;;;;21.50;19.80;;;6.50;62.40;;;;;;4974767;28;20183;-90
2023/03/09 12:29:34;;;;;;;20.80;19.03;;;6.30;63.50;;;;;;4981185;28;20198;-89
2023/03/09 12:32:28;;;;;;;21.83;19.93;;;5.90;62.10;;;;;;4981615;28;20157;-90
2023/03/09 12:35:00;;;;;;;20.03;18.53;;;5.70;63.50;;;;;;4968880;28;20182;-90
2023/03/09 12:37:31;;;;;;;21.60;19.73;;;5.70;63.40;;;;;;4985061;28;20214;-90
2023/03/09 12:40:24;;;;;;;21.30;19.57;;;5.60;65.30;;;;;;4984857;28;20171;-90